createdAt,value
2018-07-15T00:02:35.840Z,17.19
2018-07-15T00:07:38.028Z,16.79
2018-07-15T00:12:40.210Z,16.64
2018-07-15T00:17:42.354Z,16.49
2018-07-15T00:22:44.495Z,16.40
2018-07-15T00:27:46.714Z,16.47
2018-07-15T00:32:48.923Z,16.36
2018-07-15T00:37:51.133Z,16.21
2018-07-15T00:42:53.307Z,16.26
2018-07-15T00:47:55.496Z,16.09
2018-07-15T00:52:58.391Z,16.22
2018-07-15T00:58:00.583Z,16.32
2018-07-15T01:03:02.754Z,16.17
2018-07-15T01:08:04.982Z,16.08
2018-07-15T01:13:07.192Z,15.96
2018-07-15T01:18:09.366Z,15.88
2018-07-15T01:23:11.511Z,15.80
2018-07-15T01:28:13.723Z,15.71
2018-07-15T01:33:15.872Z,15.63
2018-07-15T01:38:18.029Z,15.66
2018-07-15T01:43:20.176Z,15.62
2018-07-15T01:48:22.348Z,15.67
2018-07-15T01:53:24.516Z,15.65
2018-07-15T01:58:26.668Z,15.59
2018-07-15T02:03:28.988Z,15.51
2018-07-15T02:08:31.149Z,15.16
2018-07-15T02:13:33.276Z,15.35
2018-07-15T02:18:35.451Z,15.35
2018-07-15T02:23:37.664Z,15.34
2018-07-15T02:28:39.872Z,15.36
2018-07-15T02:33:42.033Z,15.36
2018-07-15T02:38:44.239Z,15.40
2018-07-15T02:43:46.403Z,15.34
2018-07-15T02:48:48.588Z,15.36
2018-07-15T02:53:50.770Z,15.19
2018-07-15T02:58:52.952Z,15.23
2018-07-15T03:03:55.119Z,15.21
2018-07-15T03:08:57.252Z,15.19
2018-07-15T03:13:59.407Z,15.23
2018-07-15T03:19:01.550Z,15.25
2018-07-15T03:24:03.718Z,15.16
2018-07-15T03:29:05.925Z,15.26
2018-07-15T03:34:08.136Z,15.30
2018-07-15T03:39:10.414Z,15.37
2018-07-15T03:44:12.527Z,15.31
2018-07-15T03:49:14.675Z,15.36
2018-07-15T03:54:16.861Z,15.36
2018-07-15T03:59:19.000Z,15.37
2018-07-15T04:04:21.162Z,15.45
2018-07-15T04:09:23.325Z,15.54
2018-07-15T04:14:25.513Z,15.61
2018-07-15T04:19:27.720Z,15.49
2018-07-15T04:24:29.848Z,15.53
2018-07-15T04:29:32.010Z,15.59
2018-07-15T04:34:34.154Z,15.48
2018-07-15T04:39:36.273Z,15.58
2018-07-15T04:44:38.408Z,15.71
2018-07-15T04:49:40.534Z,15.82
2018-07-15T04:54:42.654Z,15.97
2018-07-15T04:59:44.770Z,16.08
2018-07-15T05:04:46.915Z,16.14
2018-07-15T05:09:49.042Z,16.30
2018-07-15T05:14:51.176Z,16.52
2018-07-15T05:19:53.369Z,16.60
2018-07-15T05:24:55.561Z,16.71
2018-07-15T05:29:57.764Z,16.91
2018-07-15T05:34:59.942Z,17.04
2018-07-15T05:40:02.126Z,17.17
2018-07-15T05:45:04.315Z,17.33
2018-07-15T05:50:06.468Z,17.60
2018-07-15T05:55:08.664Z,17.82
2018-07-15T06:00:10.848Z,17.94
2018-07-15T06:05:13.013Z,17.97
2018-07-15T06:10:15.200Z,18.11
2018-07-15T06:15:17.342Z,18.30
2018-07-15T06:20:19.472Z,18.38
2018-07-15T06:25:21.652Z,18.51
2018-07-15T06:30:23.836Z,18.55
2018-07-15T06:35:26.008Z,18.72
2018-07-15T06:40:28.217Z,18.95
2018-07-15T06:45:30.415Z,19.05
2018-07-15T06:50:32.588Z,19.15
2018-07-15T06:55:34.777Z,19.29
2018-07-15T07:00:36.962Z,19.41
2018-07-15T07:05:39.143Z,19.48
2018-07-15T07:10:41.295Z,19.62
2018-07-15T07:15:43.485Z,19.75
2018-07-15T07:20:45.656Z,19.79
2018-07-15T07:25:47.873Z,20.00
2018-07-15T07:30:50.069Z,20.01
2018-07-15T07:35:52.267Z,20.24
2018-07-15T07:40:54.439Z,18.97
2018-07-15T07:45:56.585Z,20.42
2018-07-15T07:50:58.726Z,20.49
2018-07-15T07:56:01.744Z,20.37
2018-07-15T08:01:03.918Z,20.52
2018-07-15T08:06:06.127Z,20.79
2018-07-15T08:11:08.308Z,21.01
2018-07-15T08:16:10.444Z,21.19
2018-07-15T08:21:12.656Z,21.10
2018-07-15T08:26:14.831Z,21.19
2018-07-15T08:31:18.429Z,21.26
2018-07-15T08:36:20.647Z,21.23
2018-07-15T08:41:22.811Z,21.18
2018-07-15T08:46:25.001Z,21.20
2018-07-15T08:51:27.162Z,21.24
2018-07-15T08:56:29.369Z,21.14
2018-07-15T09:01:31.552Z,21.08
2018-07-15T09:06:33.739Z,21.54
2018-07-15T09:11:35.969Z,21.92
2018-07-15T09:16:38.196Z,22.15
2018-07-15T09:21:40.459Z,22.49
2018-07-15T09:26:42.675Z,22.28
2018-07-15T09:31:45.676Z,21.94
2018-07-15T09:36:47.868Z,22.11
2018-07-15T09:41:50.140Z,22.60
2018-07-15T09:46:52.332Z,22.94
2018-07-15T09:51:54.551Z,23.00
2018-07-15T09:56:56.697Z,22.62
2018-07-15T10:01:58.935Z,22.72
2018-07-15T10:07:01.136Z,23.11
2018-07-15T10:12:03.354Z,23.13
2018-07-15T10:17:05.564Z,22.78
2018-07-15T10:22:07.759Z,22.78
2018-07-15T10:27:09.940Z,23.06
2018-07-15T10:32:12.227Z,23.47
2018-07-15T10:37:14.405Z,23.46
2018-07-15T10:42:16.636Z,23.73
2018-07-15T10:47:18.896Z,24.10
2018-07-15T10:52:21.253Z,23.94
2018-07-15T10:57:23.459Z,24.18
2018-07-15T11:02:25.723Z,24.72
2018-07-15T11:07:27.926Z,25.15
2018-07-15T11:12:30.219Z,25.34
2018-07-15T11:17:32.478Z,25.59
2018-07-15T11:22:35.070Z,25.07
2018-07-15T11:27:37.264Z,24.45
2018-07-15T11:32:39.698Z,24.00
2018-07-15T11:37:42.159Z,24.81
2018-07-15T11:42:44.404Z,25.78
2018-07-15T11:47:46.711Z,26.25
2018-07-15T11:52:49.005Z,26.38
2018-07-15T11:57:51.279Z,26.43
2018-07-15T12:02:53.895Z,26.81
2018-07-15T12:07:56.071Z,27.03
2018-07-15T12:12:58.268Z,27.28
2018-07-15T12:18:00.480Z,26.04
2018-07-15T12:23:02.782Z,25.41
2018-07-15T12:28:05.367Z,25.71
2018-07-15T12:33:08.205Z,25.42
2018-07-15T12:38:10.440Z,25.13
2018-07-15T12:43:15.689Z,24.76
2018-07-15T12:48:19.704Z,25.88
2018-07-15T12:53:22.672Z,27.30
2018-07-15T12:58:25.031Z,27.96
2018-07-15T13:03:27.618Z,28.05
2018-07-15T13:08:31.793Z,27.90
2018-07-15T13:13:36.184Z,27.86
2018-07-15T13:18:41.330Z,28.56
2018-07-15T13:23:45.213Z,29.39
2018-07-15T13:28:52.049Z,29.69
2018-07-15T13:33:58.439Z,29.51
2018-07-15T13:39:00.705Z,30.16
2018-07-15T13:44:02.996Z,30.28
2018-07-15T13:49:05.359Z,30.13
2018-07-15T13:54:07.559Z,30.26
2018-07-15T13:59:09.693Z,29.63
2018-07-15T14:04:11.874Z,28.57
2018-07-15T14:09:14.035Z,27.38
2018-07-15T14:14:16.209Z,27.20
2018-07-15T14:19:18.420Z,28.23
2018-07-15T14:24:20.650Z,28.77
2018-07-15T14:29:22.898Z,28.93
2018-07-15T14:34:25.146Z,29.23
2018-07-15T14:39:33.612Z,29.27
2018-07-15T14:44:37.531Z,29.09
2018-07-15T14:49:39.712Z,29.01
2018-07-15T14:54:41.871Z,27.75
2018-07-15T14:59:44.024Z,27.05
2018-07-15T15:04:46.234Z,26.42
2018-07-15T15:09:48.435Z,26.87
2018-07-15T15:14:50.618Z,27.53
2018-07-15T15:19:52.831Z,28.06
2018-07-15T15:24:55.007Z,28.48
2018-07-15T15:29:57.263Z,28.22
2018-07-15T15:34:59.447Z,28.41
2018-07-15T15:40:01.653Z,28.61
2018-07-15T15:45:03.976Z,28.85
2018-07-15T15:50:06.166Z,28.70
2018-07-15T15:55:08.376Z,27.84
2018-07-15T16:00:10.775Z,28.41
2018-07-15T16:05:12.980Z,28.64
2018-07-15T16:10:15.228Z,28.87
2018-07-15T16:15:17.405Z,28.89
2018-07-15T16:20:19.575Z,28.94
2018-07-15T16:25:21.765Z,28.93
2018-07-15T16:30:23.966Z,28.83
2018-07-15T16:35:26.198Z,28.94
2018-07-15T16:40:28.395Z,29.00
2018-07-15T16:45:30.608Z,29.03
2018-07-15T16:50:32.795Z,28.79
2018-07-15T16:55:35.136Z,28.56
2018-07-15T17:00:37.485Z,28.37
2018-07-15T17:05:39.611Z,28.47
2018-07-15T17:10:41.795Z,28.33
2018-07-15T17:15:44.025Z,28.06
2018-07-15T17:20:46.582Z,28.18
2018-07-15T17:25:48.772Z,28.09
2018-07-15T17:30:50.908Z,28.11
2018-07-15T17:35:53.132Z,28.11
2018-07-15T17:40:55.328Z,28.08
2018-07-15T17:45:57.520Z,27.87
2018-07-15T17:50:59.679Z,27.87
2018-07-15T17:56:01.885Z,27.73
2018-07-15T18:01:04.064Z,27.44
2018-07-15T18:06:06.297Z,27.44
2018-07-15T18:11:08.600Z,27.37
2018-07-15T18:16:10.901Z,27.21
2018-07-15T18:21:13.152Z,26.75
2018-07-15T18:26:15.333Z,26.14
2018-07-15T18:31:17.594Z,25.52
2018-07-15T18:36:19.829Z,25.29
2018-07-15T18:41:22.063Z,25.09
2018-07-15T18:46:24.281Z,24.85
2018-07-15T18:51:26.561Z,24.84
2018-07-15T18:56:28.839Z,24.72
2018-07-15T19:01:31.010Z,24.66
2018-07-15T19:06:33.220Z,24.44
2018-07-15T19:11:35.433Z,24.46
2018-07-15T19:16:37.691Z,24.46
2018-07-15T19:21:39.908Z,24.43
2018-07-15T19:26:42.220Z,24.36
2018-07-15T19:31:44.547Z,24.29
2018-07-15T19:36:46.820Z,24.30
2018-07-15T19:41:49.014Z,24.25
2018-07-15T19:46:51.285Z,24.16
2018-07-15T19:51:53.506Z,24.03
2018-07-15T19:56:55.768Z,23.86
2018-07-15T20:01:57.954Z,23.81
2018-07-15T20:07:00.273Z,23.64
2018-07-15T20:12:02.546Z,23.55
2018-07-15T20:17:04.991Z,23.39
2018-07-15T20:22:07.274Z,23.28
2018-07-15T20:27:09.526Z,23.22
2018-07-15T20:32:12.715Z,23.18
2018-07-15T20:37:14.957Z,23.05
2018-07-15T20:42:17.211Z,22.88
2018-07-15T20:47:19.464Z,22.84
2018-07-15T20:52:21.652Z,22.80
2018-07-15T20:57:24.116Z,22.67
2018-07-15T21:02:26.357Z,22.55
2018-07-15T21:07:28.551Z,22.45
2018-07-15T21:12:30.723Z,22.48
2018-07-15T21:17:32.915Z,22.30
2018-07-15T21:22:35.315Z,21.96
2018-07-15T21:27:37.498Z,21.68
2018-07-15T21:32:39.754Z,21.54
2018-07-15T21:37:42.040Z,21.45
2018-07-15T21:42:44.240Z,21.40
2018-07-15T21:47:46.424Z,21.31
2018-07-15T21:52:48.662Z,21.30
2018-07-15T21:57:50.855Z,21.30
2018-07-15T22:02:53.109Z,21.24
2018-07-15T22:08:06.702Z,21.17
2018-07-15T22:13:08.848Z,21.08
2018-07-15T22:18:11.063Z,21.05
2018-07-15T22:23:13.228Z,20.99
2018-07-15T22:28:15.378Z,20.89
2018-07-15T22:33:17.555Z,20.73
2018-07-15T22:38:19.823Z,20.52
2018-07-15T22:43:22.006Z,20.44
2018-07-15T22:48:24.194Z,20.52
2018-07-15T22:53:26.377Z,20.35
2018-07-15T22:58:28.545Z,20.25
2018-07-15T23:03:30.773Z,20.12
2018-07-15T23:08:33.089Z,20.07
2018-07-15T23:13:35.230Z,20.09
2018-07-15T23:18:37.400Z,19.94
2018-07-15T23:23:39.593Z,19.81
2018-07-15T23:28:41.732Z,19.76
2018-07-15T23:33:43.882Z,19.60
2018-07-15T23:38:46.068Z,19.51
2018-07-15T23:43:48.225Z,19.48
2018-07-15T23:48:50.388Z,19.47
2018-07-15T23:53:52.571Z,19.47
2018-07-15T23:58:54.708Z,19.40
